createdAt,value
2018-12-05T00:02:11.587Z,8.40
2018-12-05T00:04:39.123Z,8.50
2018-12-05T00:07:06.579Z,8.30
2018-12-05T00:09:34.075Z,8.30
2018-12-05T00:12:01.613Z,8.40
2018-12-05T00:14:29.158Z,8.10
2018-12-05T00:16:56.602Z,8.20
2018-12-05T00:19:24.094Z,8.20
2018-12-05T00:21:51.541Z,8.10
2018-12-05T00:24:18.983Z,8.20
2018-12-05T00:26:46.509Z,8.20
2018-12-05T00:29:14.016Z,8.30
2018-12-05T00:31:41.454Z,8.30
2018-12-05T00:34:08.923Z,8.30
2018-12-05T00:36:36.378Z,8.40
2018-12-05T00:39:06.845Z,8.30
2018-12-05T00:41:34.361Z,8.00
2018-12-05T00:44:01.818Z,7.90
2018-12-05T00:46:29.324Z,7.90
2018-12-05T00:48:56.842Z,8.10
2018-12-05T00:51:24.300Z,8.00
2018-12-05T00:53:51.722Z,8.00
2018-12-05T00:56:19.215Z,8.00
2018-12-05T00:58:46.774Z,7.90
2018-12-05T01:01:14.225Z,7.70
2018-12-05T01:03:41.682Z,7.80
2018-12-05T01:06:09.161Z,7.80
2018-12-05T01:08:36.633Z,7.60
2018-12-05T01:11:04.257Z,7.60
2018-12-05T01:13:31.718Z,7.40
2018-12-05T01:15:59.156Z,7.10
2018-12-05T01:18:26.578Z,7.30
2018-12-05T01:20:54.089Z,7.50
2018-12-05T01:23:21.629Z,7.70
2018-12-05T01:25:49.029Z,7.80
2018-12-05T01:28:16.464Z,8.20
2018-12-05T01:30:43.922Z,8.70
2018-12-05T01:33:11.351Z,8.80
2018-12-05T01:35:38.860Z,8.90
2018-12-05T01:38:07.323Z,9.00
2018-12-05T01:40:34.781Z,9.10
2018-12-05T01:43:02.230Z,9.10
2018-12-05T01:45:29.694Z,9.10
2018-12-05T01:47:57.255Z,9.10
2018-12-05T01:50:24.702Z,9.00
2018-12-05T01:52:52.170Z,8.90
2018-12-05T01:55:19.625Z,8.80
2018-12-05T01:57:47.061Z,8.70
2018-12-05T02:00:14.643Z,8.60
2018-12-05T02:02:42.101Z,8.50
2018-12-05T02:05:09.557Z,8.40
2018-12-05T02:07:37.020Z,8.30
2018-12-05T02:10:05.004Z,8.30
2018-12-05T02:12:32.426Z,8.20
2018-12-05T02:14:59.858Z,8.20
2018-12-05T02:17:27.362Z,8.10
2018-12-05T02:19:54.823Z,8.10
2018-12-05T02:22:22.274Z,8.10
2018-12-05T02:24:49.744Z,8.10
2018-12-05T02:27:17.181Z,7.90
2018-12-05T02:29:50.274Z,7.80
2018-12-05T02:32:17.705Z,7.80
2018-12-05T02:34:45.131Z,7.90
2018-12-05T02:37:13.054Z,7.90
2018-12-05T02:39:40.477Z,8.00
2018-12-05T02:42:08.078Z,8.00
2018-12-05T02:44:35.534Z,8.10
2018-12-05T02:47:03.039Z,8.00
2018-12-05T02:49:30.489Z,8.10
2018-12-05T02:51:57.904Z,8.20
2018-12-05T02:54:25.375Z,8.30
2018-12-05T02:56:52.924Z,8.30
2018-12-05T02:59:20.356Z,8.30
2018-12-05T03:01:47.774Z,8.30
2018-12-05T03:04:15.258Z,8.30
2018-12-05T03:06:42.677Z,8.20
2018-12-05T03:09:10.103Z,8.10
2018-12-05T03:11:37.522Z,8.00
2018-12-05T03:14:05.007Z,7.90
2018-12-05T03:16:32.496Z,7.90
2018-12-05T03:19:00.064Z,7.80
2018-12-05T03:21:27.487Z,7.80
2018-12-05T03:23:54.910Z,7.70
2018-12-05T03:26:22.336Z,7.70
2018-12-05T03:28:49.760Z,7.70
2018-12-05T03:31:17.187Z,7.60
2018-12-05T03:33:44.792Z,7.60
2018-12-05T03:36:13.279Z,7.50
2018-12-05T03:38:40.703Z,7.40
2018-12-05T03:41:08.309Z,7.30
2018-12-05T03:43:35.798Z,7.20
2018-12-05T03:46:03.350Z,7.20
2018-12-05T03:48:30.820Z,7.10
2018-12-05T03:50:58.440Z,7.10
2018-12-05T03:53:25.900Z,7.10
2018-12-05T03:55:53.329Z,7.00
2018-12-05T03:58:20.755Z,7.00
2018-12-05T04:00:48.206Z,6.90
2018-12-05T04:03:15.730Z,6.80
2018-12-05T04:05:43.199Z,6.80
2018-12-05T04:08:10.634Z,6.80
2018-12-05T04:10:38.083Z,6.80
2018-12-05T04:13:05.555Z,6.70
2018-12-05T04:15:33.006Z,6.80
2018-12-05T04:18:00.496Z,6.70
2018-12-05T04:20:28.041Z,6.80
2018-12-05T04:22:55.481Z,6.70
2018-12-05T04:25:22.951Z,6.80
2018-12-05T04:27:50.369Z,6.90
2018-12-05T04:30:17.848Z,6.90
2018-12-05T04:32:45.310Z,6.90
2018-12-05T04:35:13.384Z,6.80
2018-12-05T04:37:40.853Z,6.80
2018-12-05T04:40:08.422Z,6.80
2018-12-05T04:42:36.171Z,6.70
2018-12-05T04:45:03.698Z,6.70
2018-12-05T04:47:31.117Z,6.70
2018-12-05T04:49:58.646Z,6.70
2018-12-05T04:52:26.201Z,6.70
2018-12-05T04:54:53.660Z,6.70
2018-12-05T04:57:22.328Z,6.70
2018-12-05T04:59:49.896Z,6.70
2018-12-05T05:02:17.424Z,6.60
2018-12-05T05:04:44.929Z,6.60
2018-12-05T05:07:13.299Z,6.50
2018-12-05T05:09:40.783Z,6.60
2018-12-05T05:12:08.232Z,6.60
2018-12-05T05:14:35.778Z,6.70
2018-12-05T05:17:03.238Z,6.60
2018-12-05T05:19:30.695Z,6.60
2018-12-05T05:21:58.124Z,6.60
2018-12-05T05:24:25.550Z,6.60
2018-12-05T05:26:52.977Z,6.60
2018-12-05T05:29:20.447Z,6.60
2018-12-05T05:31:47.882Z,6.60
2018-12-05T05:34:15.303Z,6.50
2018-12-05T05:36:42.811Z,6.60
2018-12-05T05:39:10.242Z,6.50
2018-12-05T05:41:37.734Z,6.60
2018-12-05T05:44:05.222Z,6.60
2018-12-05T05:46:32.685Z,6.60
2018-12-05T05:49:00.299Z,6.60
2018-12-05T05:51:27.746Z,6.70
2018-12-05T05:53:55.204Z,6.70
2018-12-05T05:56:22.632Z,6.70
2018-12-05T05:58:50.078Z,6.70
2018-12-05T06:01:17.581Z,6.70
2018-12-05T06:03:45.035Z,6.70
2018-12-05T06:06:13.372Z,6.60
2018-12-05T06:08:40.882Z,6.60
2018-12-05T06:11:08.345Z,6.60
2018-12-05T06:13:35.767Z,6.60
2018-12-05T06:16:03.227Z,6.60
2018-12-05T06:18:30.679Z,6.60
2018-12-05T06:20:58.098Z,6.60
2018-12-05T06:23:25.534Z,6.60
2018-12-05T06:25:52.978Z,6.50
2018-12-05T06:28:20.446Z,6.50
2018-12-05T06:30:47.867Z,6.50
2018-12-05T06:33:15.287Z,6.50
2018-12-05T06:35:42.806Z,6.50
2018-12-05T06:38:10.245Z,6.60
2018-12-05T06:40:37.697Z,6.60
2018-12-05T06:43:05.174Z,6.60
2018-12-05T06:45:32.629Z,6.60
2018-12-05T06:48:00.117Z,6.60
2018-12-05T06:50:27.664Z,6.60
2018-12-05T06:52:55.159Z,6.60
2018-12-05T06:55:22.586Z,6.60
2018-12-05T06:57:50.004Z,6.50
2018-12-05T07:00:17.490Z,6.50
2018-12-05T07:02:44.952Z,6.60
2018-12-05T07:05:12.504Z,6.60
2018-12-05T07:07:39.937Z,6.60
2018-12-05T07:10:07.499Z,6.60
2018-12-05T07:12:34.981Z,6.70
2018-12-05T07:15:02.475Z,6.80
2018-12-05T07:17:29.990Z,6.80
2018-12-05T07:19:57.463Z,6.80
2018-12-05T07:22:24.874Z,6.90
2018-12-05T07:24:52.295Z,6.90
2018-12-05T07:27:19.755Z,6.90
2018-12-05T07:29:47.183Z,6.90
2018-12-05T07:32:14.629Z,6.90
2018-12-05T07:34:42.059Z,7.00
2018-12-05T07:37:09.551Z,7.10
2018-12-05T07:39:36.973Z,7.20
2018-12-05T07:42:04.388Z,7.30
2018-12-05T07:44:31.810Z,7.30
2018-12-05T07:46:59.310Z,7.40
2018-12-05T07:49:26.713Z,7.40
2018-12-05T07:51:54.142Z,7.50
2018-12-05T07:54:21.669Z,7.60
2018-12-05T07:56:49.099Z,7.60
2018-12-05T07:59:16.590Z,7.70
2018-12-05T08:01:44.033Z,7.70
2018-12-05T08:04:11.477Z,7.80
2018-12-05T08:06:38.947Z,7.80
2018-12-05T08:09:07.028Z,7.90
2018-12-05T08:11:34.569Z,8.00
2018-12-05T08:14:01.986Z,8.00
2018-12-05T08:16:29.423Z,8.10
2018-12-05T08:18:56.934Z,8.10
2018-12-05T08:21:24.402Z,8.20
2018-12-05T08:23:51.861Z,8.30
2018-12-05T08:26:19.440Z,8.20
2018-12-05T08:28:46.872Z,8.30
2018-12-05T08:31:14.318Z,8.40
2018-12-05T08:33:41.797Z,8.40
2018-12-05T08:36:09.244Z,8.40
2018-12-05T08:38:36.662Z,8.50
2018-12-05T08:41:04.122Z,8.30
2018-12-05T08:43:31.542Z,8.00
2018-12-05T08:45:59.130Z,8.30
2018-12-05T08:48:26.640Z,8.20
2018-12-05T08:50:54.065Z,8.50
2018-12-05T08:53:21.533Z,8.60
2018-12-05T08:55:49.070Z,9.00
2018-12-05T08:58:16.575Z,8.90
2018-12-05T09:00:44.027Z,8.80
2018-12-05T09:03:11.451Z,9.00
2018-12-05T09:05:38.970Z,8.90
2018-12-05T09:08:06.519Z,9.20
2018-12-05T09:10:33.951Z,9.00
2018-12-05T09:13:01.378Z,8.90
2018-12-05T09:15:28.888Z,9.20
2018-12-05T09:17:56.338Z,9.60
2018-12-05T09:20:23.811Z,9.70
2018-12-05T09:22:51.271Z,9.70
2018-12-05T09:25:18.690Z,9.90
2018-12-05T09:27:46.110Z,9.90
2018-12-05T09:30:13.990Z,9.50
2018-12-05T09:32:41.494Z,9.70
2018-12-05T09:35:08.967Z,9.60
2018-12-05T09:37:36.388Z,9.80
2018-12-05T09:40:04.686Z,9.90
2018-12-05T09:42:32.114Z,9.70
2018-12-05T09:44:59.606Z,9.80
2018-12-05T09:47:27.161Z,9.90
2018-12-05T09:49:54.590Z,9.90
2018-12-05T09:52:22.073Z,10.20
2018-12-05T09:54:49.538Z,10.30
2018-12-05T09:57:17.094Z,10.50
2018-12-05T09:59:44.555Z,10.30
2018-12-05T10:02:12.067Z,9.70
2018-12-05T10:04:39.503Z,9.70
2018-12-05T10:07:07.032Z,9.90
2018-12-05T10:09:34.490Z,9.80
2018-12-05T10:12:02.141Z,9.90
2018-12-05T10:14:29.705Z,9.80
2018-12-05T10:16:57.175Z,9.80
2018-12-05T10:19:24.615Z,10.00
2018-12-05T10:21:52.071Z,10.40
2018-12-05T10:24:19.542Z,10.50
2018-12-05T10:26:46.995Z,10.50
2018-12-05T10:29:14.469Z,10.50
2018-12-05T10:31:44.197Z,10.40
2018-12-05T10:34:11.329Z,10.80
2018-12-05T10:36:39.406Z,10.90
2018-12-05T10:39:07.105Z,10.50
2018-12-05T10:41:34.695Z,10.40
2018-12-05T10:44:02.288Z,10.30
2018-12-05T10:46:29.818Z,10.30
2018-12-05T10:48:57.326Z,10.70
2018-12-05T10:51:24.858Z,11.00
2018-12-05T10:53:52.428Z,10.90
2018-12-05T10:56:20.106Z,11.10
2018-12-05T10:58:47.514Z,11.30
2018-12-05T11:01:20.621Z,11.30
2018-12-05T11:03:48.104Z,10.90
2018-12-05T11:06:18.487Z,11.10
2018-12-05T11:08:51.771Z,11.50
2018-12-05T11:11:24.974Z,11.70
2018-12-05T11:13:58.277Z,11.00
2018-12-05T11:16:31.473Z,10.80
2018-12-05T11:19:04.650Z,11.00
2018-12-05T11:21:37.964Z,11.40
2018-12-05T11:24:08.010Z,11.30
2018-12-05T11:26:35.598Z,11.40
2018-12-05T11:29:03.099Z,11.80
2018-12-05T11:31:30.538Z,11.60
2018-12-05T11:33:57.963Z,11.60
2018-12-05T11:36:25.474Z,11.30
2018-12-05T11:38:52.935Z,11.50
2018-12-05T11:41:20.379Z,11.70
2018-12-05T11:43:47.920Z,11.20
2018-12-05T11:46:15.379Z,10.90
2018-12-05T11:48:42.893Z,10.90
2018-12-05T11:51:10.352Z,10.90
2018-12-05T11:53:37.810Z,10.90
2018-12-05T11:56:05.366Z,11.00
2018-12-05T11:58:32.824Z,11.40
2018-12-05T12:01:00.467Z,11.10
2018-12-05T12:03:27.895Z,11.00
2018-12-05T12:05:55.371Z,11.00
2018-12-05T12:08:22.822Z,11.40
2018-12-05T12:10:50.607Z,11.40
2018-12-05T12:13:18.091Z,11.80
2018-12-05T12:15:45.801Z,11.90
2018-12-05T12:18:14.309Z,12.00
2018-12-05T12:20:41.727Z,12.10
2018-12-05T12:23:09.426Z,12.40
2018-12-05T12:25:36.858Z,12.20
2018-12-05T12:28:04.390Z,12.10
2018-12-05T12:30:31.899Z,12.30
2018-12-05T12:32:59.388Z,12.30
2018-12-05T12:35:26.898Z,12.60
2018-12-05T12:37:54.332Z,12.90
2018-12-05T12:40:21.839Z,13.00
2018-12-05T12:42:49.266Z,13.20
2018-12-05T12:45:16.749Z,12.90
2018-12-05T12:47:44.239Z,12.60
2018-12-05T12:50:11.772Z,12.50
2018-12-05T12:52:39.213Z,12.30
2018-12-05T12:55:06.813Z,12.10
2018-12-05T12:57:34.349Z,12.00
2018-12-05T13:00:01.936Z,11.80
2018-12-05T13:02:29.502Z,12.20
2018-12-05T13:04:56.977Z,12.50
2018-12-05T13:07:24.391Z,12.80
2018-12-05T13:09:51.823Z,13.00
2018-12-05T13:12:26.129Z,12.90
2018-12-05T13:14:53.617Z,13.00
2018-12-05T13:17:21.047Z,12.40
2018-12-05T13:19:48.478Z,12.50
2018-12-05T13:22:15.906Z,12.80
2018-12-05T13:24:43.387Z,13.00
2018-12-05T13:27:10.804Z,12.70
2018-12-05T13:29:38.279Z,12.90
2018-12-05T13:32:05.833Z,13.00
2018-12-05T13:34:33.317Z,12.80
2018-12-05T13:37:00.838Z,12.90
2018-12-05T13:39:28.307Z,13.10
2018-12-05T13:41:55.952Z,13.20
2018-12-05T13:44:23.415Z,13.20
2018-12-05T13:46:50.945Z,13.20
2018-12-05T13:49:18.374Z,13.30
2018-12-05T13:51:45.815Z,13.40
2018-12-05T13:54:13.360Z,13.40
2018-12-05T13:56:40.919Z,13.00
2018-12-05T13:59:08.355Z,13.00
2018-12-05T14:01:35.833Z,13.00
2018-12-05T14:04:03.325Z,13.10
2018-12-05T14:06:30.758Z,12.60
2018-12-05T14:08:58.201Z,12.50
2018-12-05T14:11:25.718Z,12.40
2018-12-05T14:13:53.228Z,12.50
2018-12-05T14:16:20.686Z,12.70
2018-12-05T14:18:48.392Z,12.90
2018-12-05T14:21:15.839Z,12.40
2018-12-05T14:23:43.332Z,12.30
2018-12-05T14:26:10.826Z,12.20
2018-12-05T14:28:38.375Z,12.30
2018-12-05T14:31:05.843Z,12.30
2018-12-05T14:33:33.273Z,12.30
2018-12-05T14:36:00.979Z,11.90
2018-12-05T14:38:28.522Z,12.20
2018-12-05T14:40:56.020Z,12.40
2018-12-05T14:43:23.539Z,12.50
2018-12-05T14:45:51.097Z,12.40
2018-12-05T14:48:18.553Z,12.50
2018-12-05T14:50:46.075Z,12.40
2018-12-05T14:53:14.499Z,12.70
2018-12-05T14:55:41.934Z,12.40
2018-12-05T14:58:09.359Z,12.40
2018-12-05T15:00:36.870Z,12.50
2018-12-05T15:03:04.432Z,12.60
2018-12-05T15:05:32.038Z,12.60
2018-12-05T15:07:59.539Z,12.50
2018-12-05T15:10:27.081Z,12.30
2018-12-05T15:12:54.559Z,12.10
2018-12-05T15:15:22.132Z,12.10
2018-12-05T15:17:49.573Z,12.00
2018-12-05T15:20:17.084Z,12.10
2018-12-05T15:22:44.523Z,12.10
2018-12-05T15:25:12.064Z,12.20
2018-12-05T15:27:39.506Z,12.20
2018-12-05T15:30:07.066Z,12.00
2018-12-05T15:32:34.606Z,12.00
2018-12-05T15:35:02.053Z,11.90
2018-12-05T15:37:29.542Z,11.90
2018-12-05T15:39:57.001Z,12.00
2018-12-05T15:42:24.447Z,11.90
2018-12-05T15:44:51.913Z,11.20
2018-12-05T15:47:19.357Z,11.40
2018-12-05T15:49:46.778Z,11.30
2018-12-05T15:52:14.807Z,11.40
2018-12-05T15:54:42.291Z,11.30
2018-12-05T15:57:10.313Z,11.20
2018-12-05T15:59:37.838Z,11.30
2018-12-05T16:02:05.354Z,11.40
2018-12-05T16:04:32.828Z,11.40
2018-12-05T16:07:00.362Z,11.60
2018-12-05T16:09:27.824Z,11.60
2018-12-05T16:11:55.292Z,11.70
2018-12-05T16:14:22.713Z,11.80
2018-12-05T16:16:50.159Z,11.70
2018-12-05T16:19:17.583Z,11.50
2018-12-05T16:21:45.017Z,11.90
2018-12-05T16:24:12.441Z,11.60
2018-12-05T16:26:39.880Z,11.70
2018-12-05T16:29:07.326Z,11.90
2018-12-05T16:31:34.848Z,11.70
2018-12-05T16:34:02.283Z,11.90
2018-12-05T16:36:29.742Z,11.60
2018-12-05T16:38:57.161Z,11.50
2018-12-05T16:41:24.682Z,11.50
2018-12-05T16:43:52.111Z,11.10
2018-12-05T16:46:19.556Z,11.10
2018-12-05T16:48:47.012Z,11.30
2018-12-05T16:51:14.943Z,11.20
2018-12-05T16:53:42.423Z,11.40
2018-12-05T16:56:09.931Z,11.40
2018-12-05T16:58:37.387Z,11.20
2018-12-05T17:01:04.958Z,11.10
2018-12-05T17:03:32.443Z,11.40
2018-12-05T17:05:59.880Z,11.20
2018-12-05T17:08:27.412Z,11.40
2018-12-05T17:10:54.846Z,11.50
2018-12-05T17:13:22.277Z,11.50
2018-12-05T17:15:49.818Z,11.40
2018-12-05T17:18:17.310Z,11.60
2018-12-05T17:20:44.753Z,11.40
2018-12-05T17:23:12.210Z,11.40
2018-12-05T17:25:39.643Z,11.40
2018-12-05T17:28:07.074Z,11.60
2018-12-05T17:30:34.498Z,11.60
2018-12-05T17:33:01.965Z,11.50
2018-12-05T17:35:29.428Z,11.40
2018-12-05T17:37:56.868Z,11.10
2018-12-05T17:40:24.396Z,10.80
2018-12-05T17:42:51.850Z,10.70
2018-12-05T17:45:19.363Z,10.40
2018-12-05T17:47:46.782Z,10.50
2018-12-05T17:50:14.943Z,10.20
2018-12-05T17:52:42.410Z,10.70
2018-12-05T17:55:09.839Z,10.40
2018-12-05T17:57:37.303Z,10.10
2018-12-05T18:00:05.320Z,10.10
2018-12-05T18:02:32.822Z,10.40
2018-12-05T18:05:00.299Z,10.60
2018-12-05T18:07:27.793Z,10.50
2018-12-05T18:09:55.318Z,10.40
2018-12-05T18:12:22.778Z,10.60
2018-12-05T18:14:50.229Z,10.60
2018-12-05T18:17:17.856Z,11.10
2018-12-05T18:19:45.365Z,11.20
2018-12-05T18:22:12.928Z,11.40
2018-12-05T18:24:40.394Z,11.50
2018-12-05T18:27:07.816Z,11.40
2018-12-05T18:29:35.290Z,11.20
2018-12-05T18:32:02.746Z,11.30
2018-12-05T18:34:30.297Z,11.70
2018-12-05T18:36:57.758Z,11.70
2018-12-05T18:39:25.203Z,11.80
2018-12-05T18:41:52.635Z,11.80
2018-12-05T18:44:20.079Z,11.70
2018-12-05T18:46:47.515Z,11.70
2018-12-05T18:49:15.066Z,11.70
2018-12-05T18:51:42.568Z,11.60
2018-12-05T18:54:10.030Z,11.80
2018-12-05T18:56:37.610Z,12.00
2018-12-05T18:59:05.175Z,12.10
2018-12-05T19:01:32.604Z,11.80
2018-12-05T19:04:00.102Z,11.90
2018-12-05T19:06:27.527Z,12.00
2018-12-05T19:08:55.025Z,12.10
2018-12-05T19:11:22.555Z,11.90
2018-12-05T19:13:55.777Z,12.10
2018-12-05T19:16:23.207Z,12.10
2018-12-05T19:18:50.683Z,12.00
2018-12-05T19:21:18.126Z,12.20
2018-12-05T19:23:47.112Z,12.20
2018-12-05T19:26:15.206Z,12.40
2018-12-05T19:28:42.646Z,12.50
2018-12-05T19:31:10.105Z,12.50
2018-12-05T19:33:37.527Z,12.30
2018-12-05T19:36:04.978Z,11.90
2018-12-05T19:38:32.472Z,12.10
2018-12-05T19:40:59.979Z,12.30
2018-12-05T19:43:27.410Z,12.40
2018-12-05T19:45:54.867Z,11.70
2018-12-05T19:48:22.360Z,11.60
2018-12-05T19:50:49.830Z,11.40
2018-12-05T19:53:17.315Z,10.70
2018-12-05T19:55:44.723Z,11.10
2018-12-05T19:58:12.157Z,11.00
2018-12-05T20:00:39.607Z,10.70
2018-12-05T20:03:07.179Z,10.90
2018-12-05T20:05:34.599Z,10.60
2018-12-05T20:08:02.059Z,10.60
2018-12-05T20:10:29.482Z,10.50
2018-12-05T20:12:56.925Z,10.70
2018-12-05T20:15:24.367Z,10.90
2018-12-05T20:17:51.803Z,10.90
2018-12-05T20:20:19.350Z,11.00
2018-12-05T20:22:46.783Z,10.80
2018-12-05T20:25:15.169Z,10.70
2018-12-05T20:27:42.628Z,10.50
2018-12-05T20:30:10.120Z,10.60
2018-12-05T20:32:37.681Z,10.60
2018-12-05T20:35:05.201Z,10.50
2018-12-05T20:37:32.782Z,10.70
2018-12-05T20:40:00.268Z,10.50
2018-12-05T20:42:27.822Z,10.30
2018-12-05T20:44:55.251Z,10.50
2018-12-05T20:47:22.697Z,10.50
2018-12-05T20:49:50.187Z,10.50
2018-12-05T20:52:17.626Z,10.60
2018-12-05T20:54:45.086Z,10.70
2018-12-05T20:57:12.575Z,10.60
2018-12-05T20:59:40.031Z,10.80
2018-12-05T21:02:07.525Z,11.00
2018-12-05T21:04:35.043Z,10.80
2018-12-05T21:07:02.522Z,10.70
2018-12-05T21:09:29.983Z,10.80
2018-12-05T21:11:57.439Z,11.20
2018-12-05T21:14:24.911Z,11.10
2018-12-05T21:16:52.328Z,11.30
2018-12-05T21:19:19.789Z,11.20
2018-12-05T21:21:47.272Z,11.20
2018-12-05T21:24:15.467Z,10.90
2018-12-05T21:26:42.989Z,10.90
2018-12-05T21:29:10.431Z,11.30
2018-12-05T21:31:37.910Z,11.20
2018-12-05T21:34:05.374Z,11.30
2018-12-05T21:36:32.847Z,11.00
2018-12-05T21:39:00.326Z,10.70
2018-12-05T21:41:27.813Z,10.60
2018-12-05T21:43:55.243Z,10.60
2018-12-05T21:46:22.721Z,10.80
2018-12-05T21:48:50.178Z,11.00
2018-12-05T21:51:17.619Z,11.20
2018-12-05T21:53:45.054Z,11.10
2018-12-05T21:56:12.579Z,11.10
2018-12-05T21:58:40.143Z,11.10
2018-12-05T22:01:07.615Z,10.90
2018-12-05T22:03:35.067Z,10.90
2018-12-05T22:06:02.539Z,11.20
2018-12-05T22:08:29.968Z,11.20
2018-12-05T22:10:57.399Z,11.30
2018-12-05T22:13:24.826Z,11.20
2018-12-05T22:15:52.262Z,11.10
2018-12-05T22:18:19.999Z,11.10
2018-12-05T22:20:47.467Z,11.00
2018-12-05T22:23:15.555Z,11.20
2018-12-05T22:25:42.998Z,11.20
2018-12-05T22:28:10.447Z,11.00
2018-12-05T22:30:37.946Z,11.20
2018-12-05T22:33:05.643Z,11.50
2018-12-05T22:35:33.058Z,11.40
2018-12-05T22:38:00.489Z,11.20
2018-12-05T22:40:27.921Z,11.20
2018-12-05T22:42:55.355Z,11.20
2018-12-05T22:45:22.802Z,11.30
2018-12-05T22:47:50.231Z,11.30
2018-12-05T22:50:17.670Z,11.20
2018-12-05T22:52:45.158Z,11.40
2018-12-05T22:55:12.621Z,11.40
2018-12-05T22:57:40.059Z,11.30
2018-12-05T23:00:11.394Z,11.40
2018-12-05T23:02:38.948Z,11.40
2018-12-05T23:05:06.542Z,11.40
2018-12-05T23:07:33.942Z,11.40
2018-12-05T23:10:01.474Z,11.20
2018-12-05T23:12:28.988Z,11.10
2018-12-05T23:14:56.410Z,11.00
2018-12-05T23:17:23.898Z,10.80
2018-12-05T23:19:51.368Z,11.10
2018-12-05T23:22:18.833Z,11.40
2018-12-05T23:24:46.376Z,11.40
2018-12-05T23:27:13.813Z,11.40
2018-12-05T23:29:41.297Z,11.60
2018-12-05T23:32:08.753Z,11.70
2018-12-05T23:34:36.208Z,11.50
2018-12-05T23:37:03.756Z,11.50
2018-12-05T23:39:31.232Z,11.60
2018-12-05T23:41:58.686Z,11.80
2018-12-05T23:44:26.139Z,11.50
2018-12-05T23:46:53.571Z,11.70
2018-12-05T23:49:21.049Z,11.60
2018-12-05T23:51:48.515Z,11.50
2018-12-05T23:54:15.968Z,11.30
2018-12-05T23:56:43.430Z,11.30
2018-12-05T23:59:10.858Z,11.40
